Terminal Aerodrome Forecast
Issued by NWS Sterling, VA

Current Version | Previous Version | Text Only | Print | Product List | Glossary On
Versions: 1 2 3 4 5 6 7 8 9 10 11 12 13
264
FTUS41 KLWX 200532
TAFMRB
TAF
KMRB 200532Z 2006/2106 00000KT P6SM FEW060
     FM200700 VRB03KT 5SM BR FEW060
     FM201100 00000KT P6SM BKN200
     FM201700 27006KT P6SM BKN060
     FM202100 24006KT P6SM SCT060=

USA.gov is the U.S. government's official web portal to all federal, state and local government web resources and services.